Terminal Aerodrome Forecast
Issued by NWS Buffalo, NY

Home | Current Version | Previous Version | Text Only | Print | Product List | Glossary On
Versions: 1 2 3 4 5 6 7 8 9 10 11 12 13 14 15 16 17 18 19 20 21 22 23 24 25 26 27
705
FTUS41 KBUF 191737
TAFBUF
TAF
KBUF 191737Z 1918/2018 26008KT 5SM -DZSN BR OVC009
     FM192000 24008KT 6SM BR OVC012
     FM192300 23004KT P6SM OVC250
     FM200000 VRB03KT P6SM OVC250
     FM200900 09004KT P6SM BKN250
     FM201200 10004KT P6SM BKN130
     FM201600 13005KT P6SM BKN130=

USA.gov is the U.S. government's official web portal to all federal, state and local government web resources and services.